x

Neah Bay, - 6nm North Of Cape Flattery, Wa (traffic Separation Lighted Buoy) (46087) Wave Buoy

3:50 - Wed 30th Jul 2014 All times are PDT. -7 hours from GMT.

  • Sig Wave height 3.3ft
  • Swell Direction
  • Peak Period 5s
  • Average Period 5s
  • Wind
    13mph
  • Sea Temp 52°f
  • Luft Temp 54°f
  • Sea Pressure 1020.3mb
  • Neah Bay, - 6nm North Of Cape Flattery, Wa     (traffic Separation Lighted Buoy)
  • Neah Bay, - 6nm North Of Cape Flattery, Wa     (traffic Separation Lighted Buoy)

More Historic Weather Station data

Upgrade to MSW Pro to gain access to the past 30 days of data for over 8000 Wavebouys and Weather Stations around the globe.

Join Pro

Comparision Forecast

View Surf forecast
   
Mi 07/30 3:50 3.5ft 5s 5s 13
mph
1020.3mb 52f 54f
3:20  -   -   -  13 16 mph 1020.3mb 52f 54f
2:50 3.5ft 6s 5s 11 13 mph 1020.4mb 52f 55f
2:20  -   -   -  11 13 mph 1020.6mb 52f 55f
1:50 3.5ft 8s 5s 11 13 mph 1020.6mb 52f 55f
1:20  -   -   -  7 9 mph 1020.6mb 52f 55f
12:50 3.5ft 7s 5s 9 11 mph 1020.5mb 52f 55f
12:20  -   -   -  9 11 mph 1020.4mb 52f 55f
Di 07/29 11:50 3.5ft 7s 6s 7 9 mph 1020.3mb 52f 55f
11:20  -   -   -  2 4 mph 1020.5mb 52f 54f
10:50 3.5ft 8s 6s 4 7 mph 1020.5mb 53f 55f
10:20  -   -   -  2 4 mph 1020.6mb 53f 55f
9:50 3.5ft 8s 6s 4 9 mph 1020.4mb 53f 55f
9:20  -   -   -  11 13 mph 1020mb 53f 55f
8:50 3.5ft 8s 5s 13 16 mph 1019.8mb 53f 55f
8:20  -   -   -  16 18 mph 1019.4mb 53f 56f
7:50 3.5ft 8s 5s 9 13 mph 1019.9mb 53f 56f
7:20  -   -   -  13 16 mph 1019.9mb 53f 55f
6:50 3ft 8s 5s 18 20 mph 1019.8mb 53f 56f
6:20  -   -   -  11 16 mph 1020.3mb 53f 55f
5:50 3ft 7s 6s 13 16 mph 1020.5mb 53f 55f
5:20  -   -   -  13
mph
1020.7mb 53f 55f
4:50 3ft 8s 5s 13
mph
1021mb 53f 55f
4:20  -   -   -  11 13 mph 1021.2mb 53f 56f
3:50 2.5ft 8s 5s 13 16 mph 1021.3mb 53f 57f
3:20  -   -   -  13 16 mph 1021.4mb 53f 55f
2:50 2.5ft 8s 5s 13 16 mph 1021.4mb 53f 55f
2:20  -   -   -  13 16 mph 1021.6mb 53f 54f
1:50 2.5ft 6s 5s 13
mph
1021.8mb 52f 54f
1:20  -   -   -  11 13 mph 1021.9mb 52f 54f
12:50 2.5ft 7s 5s 11 13 mph 1021.9mb 52f 54f
12:20  -   -   -  11
mph
1022mb 52f 55f
11:50 2.5ft 8s 6s 9
mph
1022mb 52f 54f
11:20  -   -   -  11
mph
1022.1mb 52f 54f
10:50 2.5ft 8s 6s 9 11 mph 1021.9mb 52f 54f
10:20  -   -   -  9 11 mph 1021.8mb 52f 54f
9:50 2.5ft 8s 6s 9 11 mph 1021.8mb 52f 54f
9:20  -   -   -  7 9 mph 1021.8mb 52f 54f
8:50 2.5ft 8s 6s 7 11 mph 1021.9mb 52f 54f
8:20  -   -   -  7 9 mph 1021.7mb 52f 54f
7:50 2.5ft 8s 6s 9 11 mph 1021.5mb 52f 53f
7:20  -   -   -  9 11 mph 1021.3mb 52f 53f
6:50 3ft 8s 6s 11
mph
1021mb 52f 53f
6:20  -   -   -  9 11 mph 1020.9mb 52f 52f
5:50 3ft 8s 5s 9 11 mph 1020.7mb 52f 53f
5:20  -   -   -  9
mph
1020.5mb 52f 53f
4:50 3ft 8s 5s 9 11 mph 1020.3mb 52f 53f
4:20  -   -   -  9 11 mph 1020.2mb 52f 53f
3:50 3.5ft 5s 5s 9 11 mph 1020.1mb 53f 53f
3:20  -   -   -  11
mph
1019.9mb 52f 53f
2:50 3ft 5s 5s 11 13 mph 1019.9mb 53f 53f
2:20  -   -   -  11 13 mph 1019.9mb 53f 53f
1:50 3.5ft 6s 5s 9 11 mph 1020mb 52f 53f
1:20  -   -   -  11
mph
1020mb 53f 53f
12:50 3.5ft 8s 5s 9 11 mph 1020.2mb 53f 53f
12:20  -   -   -  9 11 mph 1020.2mb 53f 54f
Mo 07/28 11:50 3.5ft 5s 5s 9 11 mph 1020.2mb 53f 54f
11:20  -   -   -  11 13 mph 1020.2mb 53f 54f
10:50 4ft 6s 5s 11 13 mph 1020.2mb 53f 53f
10:20  -   -   -  9 11 mph 1020.2mb 53f 53f
9:50 4ft 6s 5s 11 13 mph 1020.3mb 53f 53f
9:20  -   -   -  9 13 mph 1020.3mb 54f 54f
8:50 4ft 6s 5s 13 16 mph 1019.9mb 53f 54f
8:20  -   -   -  11 13 mph 1020mb 54f 55f
7:50 4ft 5s 5s 13 16 mph 1019.9mb 54f 54f
7:20  -   -   -  16 18 mph 1019.9mb 54f 54f
6:50 3.5ft 8s 5s 11 13 mph 1020.1mb 54f 54f
6:20  -   -   -  13 16 mph 1020.2mb 54f 54f
5:50 3.5ft 8s 5s 11 13 mph 1020.4mb 54f 54f
5:20  -   -   -  13 16 mph 1020.7mb 54f 54f
4:50 3ft 8s 5s 9 11 mph 1020.8mb 53f 54f
4:20  -   -   -  13 16 mph 1020.7mb 54f 54f
3:50 3.5ft 8s 5s 9 11 mph 1021mb 53f 53f
3:20  -   -   -  11 13 mph 1021mb 53f 53f
2:50 3.5ft 8s 5s 9 11 mph 1021.2mb 53f 53f
2:20  -   -   -  9
mph
1021.3mb 53f 53f
1:50 3.5ft 8s 5s 9
mph
1021.4mb 53f 53f
1:20  -   -   -  9
mph
1021.5mb 53f 52f
12:50 3.5ft 5s 5s 9 11 mph 1021.3mb 53f 52f
12:20  -   -   -  9 11 mph 1021.1mb 53f 52f
11:50 3.5ft 8s 6s 9
mph
1021.1mb 53f 52f
11:20  -   -   -  9
mph
1021.1mb 52f 51f
10:50 3.5ft 6s 6s 9
mph
1020.9mb 53f 51f
10:20  -   -   -  9 11 mph 1020.9mb 53f 51f
9:50 3.5ft 6s 6s 9 11 mph 1020.9mb 53f 51f
9:20  -   -   -  7 9 mph 1021mb 53f 51f
8:50 3.5ft 7s 6s 7
mph
1021.2mb 53f 51f
8:20  -   -   -  7
mph
1021.1mb 52f 51f
7:50 3.5ft 8s 6s 7 9 mph 1021mb 52f 51f
7:20  -   -   -  7 9 mph 1020.9mb 53f 51f
6:50 3.5ft 7s 6s 7 9 mph 1020.7mb 53f 51f
6:20  -   -   -  4 7 mph 1020.6mb 53f 52f
5:50 4.5ft 8s 6s 4 7 mph 1020.4mb 53f 51f
5:20  -   -   -  9 11 mph 1020.2mb 53f 52f
4:50 3.5ft 6s 6s 7 9 mph 1019.9mb 53f 51f
4:20  -   -   -  7
mph
1019.8mb 53f 51f
3:50 4.5ft 6s 6s 2 4 mph 1019.8mb 53f 52f
3:20  -   -   -  4
mph
1019.8mb 53f 52f
2:50 4.5ft 6s 6s 7
mph
1019.8mb 53f 53f
2:20  -   -   -  7 9 mph 1019.7mb 53f 53f
1:50 4ft 6s 5s 9
mph
1019.7mb 53f 54f
1:20  -   -   -  9 11 mph 1019.9mb 54f 54f
12:50 4.5ft 5s 5s 9 11 mph 1020.1mb 53f 55f
12:20  -   -   -  7 9 mph 1020.2mb 53f 55f
So 07/27 11:50 4.5ft 5s 5s 4 7 mph 1020.2mb 53f 55f
11:20  -   -   -  4
mph
1020.5mb 53f 56f
10:50 4.5ft 5s 6s 7 9 mph 1020.6mb 53f 56f
10:20  -   -   -  7 11 mph 1020.5mb 53f 56f
9:50 4.5ft 5s 5s 9 13 mph 1020.4mb 52f 56f
9:20  -   -   -  16 20 mph 1019.8mb 52f 56f
8:50 4.5ft 5s 5s 20 22 mph 1019.4mb 52f 56f
8:20  -   -   -  20 22 mph 1019.4mb 52f 57f
7:50 4.5ft 8s 5s 20 25 mph 1019.5mb 52f 57f
7:20  -   -   -  20 22 mph 1019.7mb 52f 57f
6:50 3.5ft 8s 5s 20 22 mph 1019.8mb 52f 57f
6:20  -   -   -  18 22 mph 1020mb 52f 56f
5:50 3.5ft 8s 5s 18 20 mph 1020.4mb 52f 56f
5:20  -   -   -  18 20 mph 1020.6mb 53f 56f
4:50 3.5ft 7s 5s 16 18 mph 1021.1mb 53f 56f
4:20  -   -   -  16 20 mph 1021.2mb 54f 56f
3:50 3ft 8s 5s 16 18 mph 1021.6mb 55f 57f
3:20  -   -   -  16 18 mph 1021.8mb 54f 57f
2:50 3ft 7s 6s 9 11 mph 1022.1mb 55f 57f
2:20  -   -   -  7 9 mph 1022.2mb 55f 56f
1:50 3.5ft 8s 6s 7 9 mph 1022.3mb 55f 55f
1:20  -   -   -  7
mph
1022.5mb 54f 54f
12:50 4ft 8s 6s 4 7 mph 1022.6mb 54f 54f
12:20  -   -   -  4
mph
1022.7mb 54f 54f
11:50 4ft 8s 7s 4
mph
1022.9mb 54f 53f
11:20  -   -   -  2 4 mph 1022.9mb 53f 53f
10:50 3.5ft 8s 7s 2 4 mph 1023mb 53f 52f
10:20  -   -   -  2 4 mph 1023.1mb 54f 52f
9:50 3.5ft 9s 8s 2 4 mph 1023.2mb 54f 52f
9:20  -   -   -  2 4 mph 1023.1mb 53f 53f
8:50 3.5ft 8s 8s 2 4 mph 1023.2mb 53f 52f
8:20  -   -   -  4
mph
1023.2mb 53f 52f
7:50 3ft 8s 7s 2 4 mph 1023.2mb 53f 53f
7:20  -   -   -  2
mph
1023mb 53f 52f
6:50 2.5ft 8s 7s 2 4 mph 1022.8mb 53f 52f
6:20  -   -   -  2 4 mph 1022.6mb 53f 51f
5:50 2.5ft 9s 6s 2
mph
1022.6mb 53f 51f
5:20  -   -   -  2
mph
1022.5mb 53f 52f
4:50 2.5ft 8s 6s 2 4 mph 1022.4mb 53f 52f
4:20  -   -   -  2
mph
1022.4mb 53f 52f
3:50 2.5ft 7s 6s 2
mph
1022.4mb 53f 52f
3:20  -   -   -  4 7 mph 1022.1mb 53f 52f
2:50 2.5ft 7s 6s 4 7 mph 1022.1mb 53f 53f
2:20  -   -   -  4
mph
1022.1mb 53f 53f
1:50 2.5ft 7s 6s 7
mph
1022.1mb 53f 52f
1:20  -   -   -  2
mph
1022.1mb 53f 53f
12:50 2.5ft 8s 5s 4 7 mph 1022.2mb 53f 54f
12:20  -   -   -  4 7 mph 1022.4mb 53f 54f
Sa 07/26 11:50 3ft 8s 6s 7 9 mph 1022.3mb 53f 55f
11:20  -   -   -  7
mph
1022.3mb 53f 55f
10:50 3ft 7s 6s 4 7 mph 1022.4mb 53f 55f
10:20  -   -   -  7
mph
1022.4mb 54f 55f
9:50 2.5ft 8s 6s 7 9 mph 1022.5mb 54f 56f
9:20  -   -   -  7
mph
1022.4mb 54f 55f
8:50 2.5ft 7s 6s 7 9 mph 1022.1mb 55f 56f
8:20  -   -   -  9 11 mph 1022.2mb 55f 57f
7:50 2.5ft 7s 6s 7 9 mph 1022.2mb 55f 57f
7:20  -   -   -  7
mph
1022.4mb 55f 58f
6:50 2.5ft 7s 6s 7
mph
1022.5mb 55f 57f
6:20  -   -   -  7
mph
1022.6mb 55f 57f
5:50 2.5ft 7s 6s 7 9 mph 1022.7mb 56f 57f
5:20  -   -   -  9
mph
1022.7mb 55f 57f
4:50 2ft 7s 6s 9
mph
1022.8mb 55f 57f
4:20  -   -   -  7
mph
1022.9mb 55f 54f
3:50 2ft 7s 6s 4
mph
1023mb 55f 53f
3:20  -   -   -  7 9 mph 1023.1mb 55f 53f
2:50 2.5ft 6s 6s 7 9 mph 1023.1mb 55f 53f
2:20  -   -   -  9
mph
1023.2mb 54f 53f
1:50 2.5ft 6s 5s 9
mph
1023.4mb 54f 53f
1:20  -   -   -  7 9 mph 1023.3mb 54f 52f
12:50 2.5ft 7s 5s 7 9 mph 1023.2mb 54f 53f
12:20  -   -   -  7 9 mph 1023.1mb 54f 53f
11:50 2.5ft 6s 6s 4 7 mph 1023.1mb 54f 53f